Time;durP1;ratioP1;P1;durP2;ratioP2;P2;SDS_P1;SDS_P2;PMS_P1;PMS_P2;Temp;Humidity;BMP_temperature;BMP_pressure;BME280_temperature;BME280_humidity;BME280_pressure;Samples;Min_cycle;Max_cycle;Signal;HPM_P1;HPM_P2
2021/04/03 00:01:57;;;;;;;7.60;3.60;;;;;;;-0.98;86.89;99454.32;1694795;83;21096;-76
2021/04/03 00:04:25;;;;;;;7.47;3.33;;;;;;;-0.99;86.90;99456.05;1690511;84;21171;-77
2021/04/03 00:06:53;;;;;;;6.75;3.20;;;;;;;-1.01;86.93;99459.06;1693298;84;21573;-75
2021/04/03 00:09:24;;;;;;;6.03;3.25;;;;;;;-1.00;86.91;99466.38;1699244;84;21122;-75
2021/04/03 00:11:52;;;;;;;4.85;2.55;;;;;;;-1.03;87.02;99455.62;1713087;80;21395;-71
2021/04/03 00:14:22;;;;;;;6.55;3.10;;;;;;;-1.07;87.12;99453.45;1724392;82;21155;-70
2021/04/03 00:16:50;;;;;;;5.65;2.70;;;;;;;-1.08;87.17;99458.20;1650719;85;21109;-71
2021/04/03 00:20:49;;;;;;;5.93;3.70;;;;;;;-1.04;87.14;99460.77;1799107;79;22586;-70
2021/04/03 00:23:19;;;;;;;7.28;3.00;;;;;;;-1.11;87.18;99456.04;1780428;80;21268;-67
2021/04/03 00:25:47;;;;;;;6.90;3.15;;;;;;;-1.14;87.16;99453.47;1688783;80;21274;-75
2021/04/03 00:28:15;;;;;;;5.55;3.12;;;;;;;-1.18;87.04;99451.73;1691347;83;21228;-76
2021/04/03 00:30:45;;;;;;;6.08;2.98;;;;;;;-1.23;87.00;99458.20;1683686;83;21179;-76
2021/04/03 00:33:13;;;;;;;7.53;3.30;;;;;;;-1.24;87.16;99456.49;1683364;84;22111;-77
2021/04/03 00:35:44;;;;;;;5.42;3.20;;;;;;;-1.26;87.06;99456.92;1675338;84;21167;-77
2021/04/03 00:38:14;;;;;;;6.22;3.12;;;;;;;-1.28;87.19;99457.34;1684267;84;21654;-76
2021/04/03 00:40:47;;;;;;;6.83;3.35;;;;;;;-1.28;87.34;99458.64;1693971;82;21079;-69
2021/04/03 00:43:23;;;;;;;6.53;3.30;;;;;;;-1.30;87.48;99453.90;1706792;83;21196;-69
2021/04/03 00:45:51;;;;;;;7.85;3.45;;;;;;;-1.31;87.44;99452.19;1685366;83;21151;-69
2021/04/03 00:48:19;;;;;;;7.55;3.62;;;;;;;-1.33;87.45;99456.49;1702602;83;21124;-69
2021/04/03 00:50:50;;;;;;;5.97;3.40;;;;;;;-1.35;87.56;99459.50;1701112;83;21381;-69
2021/04/03 00:53:21;;;;;;;6.35;3.77;;;;;;;-1.37;87.59;99457.34;1697039;83;21143;-71
2021/04/03 00:55:51;;;;;;;6.67;3.40;;;;;;;-1.38;87.58;99459.48;1696890;81;21236;-74
2021/04/03 00:58:20;;;;;;;6.10;3.40;;;;;;;-1.40;87.60;99463.78;1708556;82;21742;-75
2021/04/03 01:00:48;;;;;;;6.67;3.02;;;;;;;-1.42;87.78;99467.67;1708153;82;21204;-75
2021/04/03 01:03:20;;;;;;;5.80;3.45;;;;;;;-1.43;87.81;99463.35;1710996;82;21211;-75
2021/04/03 01:05:49;;;;;;;5.45;3.20;;;;;;;-1.48;87.82;99461.20;1714564;82;21152;-75
2021/04/03 01:08:17;;;;;;;9.35;4.28;;;;;;;-1.53;87.89;99462.48;1705582;82;21223;-75
2021/04/03 01:10:50;;;;;;;6.00;3.30;;;;;;;-1.53;87.96;99469.38;1688400;82;21113;-70
2021/04/03 01:13:54;;;;;;;7.75;3.27;;;;;;;-1.55;88.06;99471.09;1675785;84;21291;-70
2021/04/03 01:17:10;;;;;;;8.98;3.77;;;;;;;-1.58;88.18;99469.38;1699802;83;21405;-69
2021/04/03 01:20:00;;;;;;;4.28;3.00;;;;;;;-1.60;88.34;99472.81;1686595;84;21161;-69
2021/04/03 01:22:55;;;;;;;5.80;3.58;;;;;;;-1.62;88.55;99475.38;1676798;83;21223;-69
2021/04/03 01:26:09;;;;;;;7.72;4.45;;;;;;;-1.59;88.86;99464.20;1709177;79;21172;-75
2021/04/03 01:28:55;;;;;;;7.95;4.67;;;;;;;-1.60;88.90;99459.47;1658941;85;21239;-75
2021/04/03 01:31:24;;;;;;;8.38;3.50;;;;;;;-1.59;89.12;99465.05;1654004;86;21393;-71
2021/04/03 01:33:53;;;;;;;6.70;3.33;;;;;;;-1.58;88.99;99465.50;1694480;84;21224;-73
2021/04/03 01:36:23;;;;;;;6.80;3.72;;;;;;;-1.60;88.92;99470.23;1695831;84;21194;-73
2021/04/03 01:38:58;;;;;;;7.33;3.72;;;;;;;-1.59;89.01;99470.22;1696045;83;21213;-73
2021/04/03 01:41:30;;;;;;;8.60;4.30;;;;;;;-1.55;89.26;99476.26;1679788;81;21236;-73
2021/04/03 01:43:58;;;;;;;9.70;3.87;;;;;;;-1.51;89.32;99469.81;1660060;85;21349;-74
2021/04/03 01:46:34;;;;;;;7.42;3.72;;;;;;;-1.51;89.22;99465.94;1670206;85;21250;-74
2021/04/03 01:49:09;;;;;;;8.35;3.87;;;;;;;-1.51;89.21;99465.94;1660536;85;21654;-73
2021/04/03 01:51:45;;;;;;;15.18;5.30;;;;;;;-1.52;89.11;99467.21;1688094;85;21174;-68
2021/04/03 01:54:13;;;;;;;9.83;4.20;;;;;;;-1.54;89.09;99463.36;1676565;85;21202;-69
2021/04/03 01:56:43;;;;;;;8.95;3.90;;;;;;;-1.53;89.11;99468.94;1707722;79;22325;-74
2021/04/03 01:59:12;;;;;;;7.37;3.80;;;;;;;-1.54;89.04;99463.36;1698339;83;21681;-73
2021/04/03 02:01:43;;;;;;;8.18;4.05;;;;;;;-1.53;88.96;99462.48;1724936;83;21195;-74
2021/04/03 02:04:16;;;;;;;6.97;3.83;;;;;;;-1.54;88.95;99460.78;1723884;83;21163;-74
2021/04/03 02:06:45;;;;;;;6.70;3.47;;;;;;;-1.56;88.89;99463.78;1696412;83;21193;-74
2021/04/03 02:09:16;;;;;;;7.00;3.65;;;;;;;-1.57;88.80;99464.62;1722088;82;21608;-75
2021/04/03 02:11:49;;;;;;;8.20;4.40;;;;;;;-1.59;88.71;99461.17;1673738;79;21241;-69
2021/04/03 02:14:22;;;;;;;7.75;4.12;;;;;;;-1.62;88.67;99458.60;1626945;86;21286;-70
2021/04/03 02:16:50;;;;;;;7.97;4.28;;;;;;;-1.64;88.62;99457.73;1625658;87;21209;-68
2021/04/03 02:19:19;;;;;;;5.95;3.30;;;;;;;-1.65;88.72;99462.92;1585713;86;21238;-70
2021/04/03 02:21:48;;;;;;;9.28;4.25;;;;;;;-1.65;88.85;99445.70;1618785;86;21431;-69
2021/04/03 02:24:18;;;;;;;8.15;4.55;;;;;;;-1.67;88.81;99446.13;1643746;82;21241;-75
2021/04/03 02:26:46;;;;;;;9.23;3.80;;;;;;;-1.69;88.82;99449.12;1656675;85;21309;-75
2021/04/03 02:29:14;;;;;;;10.68;4.40;;;;;;;-1.72;88.89;99446.55;1665455;84;21204;-74
2021/04/03 02:31:44;;;;;;;7.70;4.35;;;;;;;-1.71;89.13;99452.13;1660739;84;21219;-75
2021/04/03 02:34:12;;;;;;;8.20;4.03;;;;;;;-1.72;89.11;99449.13;1673347;84;21222;-76
2021/04/03 02:36:42;;;;;;;5.55;3.10;;;;;;;-1.75;89.12;99450.39;1621317;85;21261;-75
2021/04/03 02:39:10;;;;;;;5.72;3.05;;;;;;;-1.77;89.20;99453.40;1685333;80;21116;-69
2021/04/03 02:41:50;;;;;;;;;;;;;;;-1.78;89.21;99451.69;1702270;83;21174;-69
2021/04/03 02:44:48;;;;;;;7.87;3.90;;;;;;;-1.78;89.24;99456.42;1693647;83;20256;-69
2021/04/03 02:47:35;;;;;;;10.28;4.20;;;;;;;-1.81;89.27;99446.09;1707022;83;21227;-69
2021/04/03 02:50:20;;;;;;;6.85;4.15;;;;;;;-1.84;89.36;99451.27;1716931;83;21194;-68
2021/04/03 02:52:51;;;;;;;7.30;4.00;;;;;;;-1.85;89.40;99452.55;1680067;84;21141;-69
2021/04/03 02:55:29;;;;;;;5.33;3.10;;;;;;;-1.87;89.50;99450.38;1665892;82;21245;-75
2021/04/03 02:58:00;;;;;;;7.42;3.00;;;;;;;-1.86;89.58;99452.09;1716236;82;21143;-75
2021/04/03 03:00:28;;;;;;;5.78;3.55;;;;;;;-1.87;89.56;99450.38;1734178;82;21282;-76
2021/04/03 03:02:58;;;;;;;13.85;4.65;;;;;;;-1.87;89.70;99452.97;1676670;84;21222;-76
2021/04/03 03:05:27;;;;;;;10.70;5.33;;;;;;;-1.88;89.87;99452.11;1718445;82;21240;-75
2021/04/03 03:07:57;;;;;;;8.77;4.37;;;;;;;-1.88;89.85;99447.39;1712476;82;21207;-76
2021/04/03 03:10:25;;;;;;;13.08;5.28;;;;;;;-1.90;89.86;99448.22;1701660;81;21163;-67
2021/04/03 03:12:55;;;;;;;10.00;4.22;;;;;;;-1.92;89.88;99442.19;1705391;82;22369;-67
2021/04/03 03:15:28;;;;;;;9.73;4.65;;;;;;;-1.94;89.78;99442.62;1706947;83;21256;-68
2021/04/03 03:17:56;;;;;;;9.85;4.78;;;;;;;-1.96;89.72;99445.62;1682743;83;21205;-70
2021/04/03 03:20:25;;;;;;;11.33;5.22;;;;;;;-1.98;89.67;99446.07;1692127;83;21212;-69
2021/04/03 03:22:53;;;;;;;11.68;4.97;;;;;;;-2.00;89.72;99450.36;1693125;83;21237;-69
2021/04/03 03:25:23;;;;;;;16.10;5.83;;;;;;;-2.00;89.77;99453.34;1664514;81;22343;-75
2021/04/03 03:27:52;;;;;;;20.85;8.80;;;;;;;-2.00;89.82;99454.64;1678299;84;21191;-73
2021/04/03 03:30:23;;;;;;;18.70;6.35;;;;;;;-2.01;89.98;99448.62;1725152;82;21460;-74
2021/04/03 03:32:53;;;;;;;19.05;6.37;;;;;;;-2.00;90.04;99452.95;1708620;82;21180;-76
2021/04/03 03:35:22;;;;;;;14.87;6.30;;;;;;;-1.99;90.10;99454.65;1704029;82;21691;-75
2021/04/03 03:37:53;;;;;;;19.10;8.05;;;;;;;-2.00;89.99;99455.52;1697068;83;21213;-75
2021/04/03 03:40:23;;;;;;;15.55;7.37;;;;;;;-2.00;89.94;99451.66;1728447;80;21609;-69
2021/04/03 03:42:53;;;;;;;17.30;8.25;;;;;;;-2.00;90.05;99449.07;1719287;81;21243;-68
2021/04/03 03:45:23;;;;;;;17.12;7.28;;;;;;;-1.98;90.01;99449.94;1731072;81;21176;-68
2021/04/03 03:47:55;;;;;;;14.75;6.35;;;;;;;-1.98;89.97;99443.49;1757142;81;21137;-68
2021/04/03 03:50:23;;;;;;;13.45;6.10;;;;;;;-1.96;89.90;99449.48;1767978;81;21424;-68
2021/04/03 03:52:52;;;;;;;11.83;6.40;;;;;;;-1.93;89.90;99443.06;1756804;80;21176;-69
2021/04/03 03:55:21;;;;;;;11.63;6.15;;;;;;;-1.90;89.93;99445.64;1761178;79;21221;-72
2021/04/03 03:57:51;;;;;;;12.82;5.70;;;;;;;-1.87;90.00;99444.78;1780341;79;21582;-72
2021/04/03 04:00:21;;;;;;;12.63;5.37;;;;;;;-1.80;90.18;99447.81;1777245;79;21507;-71
2021/04/03 04:02:52;;;;;;;8.90;4.72;;;;;;;-1.76;90.19;99444.81;1784656;79;21458;-71
2021/04/03 04:05:21;;;;;;;7.95;3.83;;;;;;;-1.66;90.24;99450.84;1790659;77;21190;-71
2021/04/03 04:07:52;;;;;;;8.30;3.20;;;;;;;-1.42;90.61;99446.16;1767332;79;21210;-72
2021/04/03 04:10:22;;;;;;;;;;;;;;;-0.85;91.15;99452.16;1750816;78;21239;-70
2021/04/03 04:12:50;;;;;;;12.75;5.67;;;;;;;-0.20;90.59;99454.55;1730746;81;20296;-71
2021/04/03 04:15:19;;;;;;;11.75;5.60;;;;;;;0.37;89.72;99457.70;1726264;81;21423;-71
2021/04/03 04:17:48;;;;;;;22.80;11.40;;;;;;;0.94;88.69;99451.61;1749570;80;21636;-70
2021/04/03 04:20:17;;;;;;;34.80;17.52;;;;;;;1.50;87.47;99453.25;1746685;81;21673;-70
2021/04/03 04:22:48;;;;;;;47.75;26.97;;;;;;;2.06;86.40;99453.43;1713177;83;21216;-71
2021/04/03 04:25:16;;;;;;;48.50;30.05;;;;;;;3.02;83.60;99447.66;1720998;80;21166;-72
2021/04/03 04:27:45;;;;;;;42.55;23.90;;;;;;;3.02;83.60;99447.66;1704820;83;21375;-73
2021/04/03 04:30:15;;;;;;;31.55;19.45;;;;;;;3.43;81.60;99448.62;1699695;83;21199;-75
2021/04/03 04:32:45;;;;;;;27.95;16.75;;;;;;;3.69;80.33;99453.35;1707993;83;21194;-73
2021/04/03 04:35:15;;;;;;;19.03;12.50;;;;;;;3.99;78.36;99452.72;1705685;83;21860;-73
2021/04/03 04:37:44;;;;;;;20.40;10.82;;;;;;;4.39;77.56;99455.78;1701402;83;21211;-71
2021/04/03 04:40:15;;;;;;;14.43;7.40;;;;;;;4.70;75.08;99456.36;1708235;81;21248;-65
2021/04/03 04:42:43;;;;;;;11.35;7.03;;;;;;;5.04;74.53;99454.23;1709329;83;21158;-67
2021/04/03 04:45:13;;;;;;;13.05;7.35;;;;;;;5.52;73.33;99453.85;1712513;81;21614;-66
2021/04/03 04:47:41;;;;;;;10.40;6.10;;;;;;;5.90;71.13;99449.30;1706465;83;21218;-70
2021/04/03 04:50:13;;;;;;;11.50;6.03;;;;;;;6.19;70.07;99447.17;1701702;81;21195;-66
2021/04/03 04:52:42;;;;;;;10.45;5.85;;;;;;;6.55;68.71;99443.47;1699443;82;22200;-67
2021/04/03 04:55:13;;;;;;;11.35;5.50;;;;;;;6.88;66.33;99441.08;1714518;81;21139;-74
2021/04/03 04:57:42;;;;;;;12.47;6.03;;;;;;;7.16;65.54;99446.70;1695376;84;21178;-74
2021/04/03 05:00:13;;;;;;;11.28;5.70;;;;;;;7.48;63.24;99447.36;1725179;82;21185;-73
2021/04/03 05:02:43;;;;;;;13.53;6.33;;;;;;;7.66;62.01;99441.46;1718821;83;21187;-73
2021/04/03 05:05:12;;;;;;;11.12;6.00;;;;;;;7.90;60.72;99448.88;1717994;83;21382;-73
2021/04/03 05:07:40;;;;;;;14.33;5.78;;;;;;;8.01;59.17;99443.24;1718369;83;21227;-74
2021/04/03 05:10:11;;;;;;;10.13;5.83;;;;;;;8.26;58.49;99442.29;1716330;79;21682;-67
2021/04/03 05:12:39;;;;;;;15.85;5.78;;;;;;;8.51;57.06;99447.47;1708467;82;21124;-66
2021/04/03 05:15:09;;;;;;;10.08;5.80;;;;;;;8.67;57.00;99449.03;1707282;82;21643;-69
2021/04/03 05:17:36;;;;;;;14.75;8.58;;;;;;;9.05;55.65;99446.16;1708718;83;21379;-67
2021/04/03 05:20:07;;;;;;;16.12;11.20;;;;;;;9.49;53.46;99442.56;1708640;83;21195;-66
2021/04/03 05:22:34;;;;;;;11.33;6.50;;;;;;;9.79;53.34;99447.78;1708881;82;21147;-69
2021/04/03 05:25:04;;;;;;;13.60;6.60;;;;;;;10.01;51.26;99447.67;1708105;79;21250;-73
2021/04/03 05:27:32;;;;;;;9.88;5.95;;;;;;;10.21;50.83;99452.00;1694811;84;21196;-73
2021/04/03 05:30:00;;;;;;;10.30;6.12;;;;;;;10.41;49.60;99445.84;1702441;83;21451;-73
2021/04/03 05:32:28;;;;;;;12.35;6.20;;;;;;;10.70;48.55;99448.41;1764633;79;21668;-74
2021/04/03 05:34:56;;;;;;;9.63;6.05;;;;;;;11.01;46.63;99448.22;1764742;81;21231;-74
2021/04/03 05:37:24;;;;;;;12.30;6.65;;;;;;;11.25;45.80;99454.50;1744401;81;21242;-72
2021/04/03 05:39:52;;;;;;;13.03;6.95;;;;;;;11.62;46.04;99455.25;1699143;80;21458;-69
2021/04/03 05:42:21;;;;;;;10.35;6.58;;;;;;;12.14;45.21;99451.20;1746157;81;21441;-69
2021/04/03 05:44:50;;;;;;;12.85;7.10;;;;;;;12.69;44.42;99447.30;1734301;82;21231;-69
2021/04/03 05:49:43;;;;;;;10.32;6.33;;;;;;;13.70;42.02;99435.25;1825932;75;22904;-67
2021/04/03 05:52:11;;;;;;;13.15;6.78;;;;;;;14.06;39.77;99432.98;1721074;81;21170;-68
2021/04/03 05:54:40;;;;;;;14.30;6.97;;;;;;;14.29;38.35;99430.69;1704153;78;21447;-74
2021/04/03 05:57:10;;;;;;;14.85;6.87;;;;;;;14.32;38.70;99434.45;1707018;83;21143;-73
2021/04/03 05:59:39;;;;;;;;;;;;;;;14.50;38.53;99441.70;1697863;83;21413;-72
2021/04/03 06:02:07;;;;;;;13.85;6.47;;;;;;;14.75;37.75;99435.70;1637510;85;20291;-73
2021/04/03 06:04:35;;;;;;;10.82;5.58;;;;;;;15.01;38.25;99435.78;1646369;85;21191;-71
2021/04/03 06:07:05;;;;;;;12.20;7.05;;;;;;;15.30;38.87;99443.13;1644146;85;21382;-73
2021/04/03 06:09:39;;;;;;;11.57;5.80;;;;;;;15.60;37.23;99443.29;1644552;84;21217;-72
2021/04/03 06:12:09;;;;;;;11.38;6.40;;;;;;;15.70;37.09;99441.27;1727503;80;21209;-69
2021/04/03 06:14:38;;;;;;;10.70;6.20;;;;;;;16.07;36.02;99445.33;1752898;81;21166;-70
2021/04/03 06:17:06;;;;;;;10.43;6.37;;;;;;;16.35;35.17;99455.32;1692961;84;21178;-69
2021/04/03 06:19:36;;;;;;;10.43;5.60;;;;;;;16.60;34.92;99447.75;1700464;82;21164;-68
2021/04/03 06:22:05;;;;;;;10.75;5.53;;;;;;;16.82;34.08;99452.39;1690299;83;21187;-69
2021/04/03 06:24:43;;;;;;;11.65;6.37;;;;;;;16.88;32.15;99454.58;1686590;83;21244;-69
2021/04/03 06:27:14;;;;;;;9.98;5.80;;;;;;;16.86;33.33;99453.84;1613117;85;21190;-74
2021/04/03 06:29:52;;;;;;;17.57;5.83;;;;;;;16.99;33.39;99455.97;1897006;72;53859;-72
2021/04/03 06:32:30;;;;;;;10.13;6.03;;;;;;;16.91;33.73;99462.35;1853799;75;21151;-72
2021/04/03 06:34:58;;;;;;;12.03;6.50;;;;;;;17.13;33.31;99454.09;1868846;75;21319;-72
2021/04/03 06:37:33;;;;;;;8.90;5.85;;;;;;;17.20;33.17;99453.50;1842947;75;21593;-72
2021/04/03 06:40:11;;;;;;;10.18;5.87;;;;;;;17.25;33.23;99454.48;1858852;71;20918;-68
2021/04/03 06:42:49;;;;;;;10.78;6.17;;;;;;;17.32;31.45;99458.41;1804291;77;21194;-68
2021/04/03 06:45:33;;;;;;;10.48;5.92;;;;;;;17.49;32.47;99456.28;1790493;79;21150;-69
2021/04/03 06:48:10;;;;;;;11.08;6.72;;;;;;;17.80;32.17;99459.58;1792425;79;21197;-68
2021/04/03 06:50:45;;;;;;;11.90;6.80;;;;;;;17.94;31.37;99460.36;1796770;79;21171;-68
2021/04/03 06:53:15;;;;;;;16.73;7.30;;;;;;;17.92;30.74;99463.16;1800837;79;21507;-68
2021/04/03 06:55:48;;;;;;;11.93;7.47;;;;;;;17.69;31.84;99468.04;1794926;75;21204;-73
2021/04/03 06:58:15;;;;;;;11.30;7.47;;;;;;;17.82;32.32;99472.33;1761025;79;21215;-73
2021/04/03 07:00:45;;;;;;;14.10;7.95;;;;;;;18.18;31.81;99472.25;1756378;81;21247;-73
2021/04/03 07:03:23;;;;;;;17.77;7.62;;;;;;;18.20;30.90;99473.82;1734039;79;21230;-73
2021/04/03 07:05:51;;;;;;;13.95;6.97;;;;;;;18.31;32.11;99478.77;1758460;79;21266;-71
2021/04/03 07:08:20;;;;;;;15.83;7.95;;;;;;;18.58;30.84;99467.23;1762275;79;21193;-73
2021/04/03 07:10:48;;;;;;;15.50;7.78;;;;;;;18.88;30.99;99472.90;1789581;75;21187;-69
2021/04/03 07:13:19;;;;;;;17.15;6.95;;;;;;;19.22;30.29;99472.30;1839900;77;21243;-68
2021/04/03 07:15:46;;;;;;;11.20;7.30;;;;;;;19.45;28.82;99472.53;1850374;76;21172;-68
2021/04/03 07:18:15;;;;;;;12.13;6.65;;;;;;;19.56;28.49;99476.14;1848111;76;21602;-71
2021/04/03 07:20:43;;;;;;;14.13;6.62;;;;;;;19.42;28.21;99476.81;1835867;77;21188;-68
2021/04/03 07:23:14;;;;;;;8.95;5.62;;;;;;;19.13;28.08;99485.06;1847038;77;21208;-68
2021/04/03 07:25:42;;;;;;;9.68;5.62;;;;;;;18.82;28.49;99483.59;1838734;76;22284;-74
2021/04/03 07:28:15;;;;;;;20.32;6.45;;;;;;;18.57;29.36;99492.70;1752024;79;21176;-80
2021/04/03 07:30:48;;;;;;;7.42;4.22;;;;;;;18.75;29.77;99489.02;1767609;79;21210;-79
2021/04/03 07:33:21;;;;;;;7.80;4.33;;;;;;;19.10;29.33;99481.33;1775096;80;21164;-79
2021/04/03 07:35:55;;;;;;;8.35;4.10;;;;;;;19.54;30.21;99486.10;1791154;79;21177;-79
2021/04/03 07:38:38;;;;;;;6.30;3.37;;;;;;;20.00;27.84;99490.21;1777535;79;21245;-79
2021/04/03 07:41:16;;;;;;;9.65;3.87;;;;;;;20.12;26.81;99489.14;1802102;75;21254;-70
2021/04/03 07:43:47;;;;;;;7.62;3.30;;;;;;;20.06;27.54;99495.88;1816638;77;21204;-70
2021/04/03 07:46:23;;;;;;;7.55;3.20;;;;;;;20.29;26.96;99496.55;1823496;77;21176;-70
2021/04/03 07:48:57;;;;;;;6.50;3.62;;;;;;;20.11;26.31;99500.83;1816042;77;21180;-71
2021/04/03 07:51:36;;;;;;;4.83;3.17;;;;;;;19.35;26.54;99503.67;1813484;77;21380;-70
2021/04/03 07:54:09;;;;;;;7.08;3.10;;;;;;;18.90;27.89;99507.81;1821104;77;21163;-70
2021/04/03 07:56:52;;;;;;;5.65;3.27;;;;;;;19.02;28.28;99505.47;1800245;73;21165;-73
2021/04/03 07:59:47;;;;;;;41.35;4.90;;;;;;;19.16;28.31;99507.48;1749553;80;21199;-74
2021/04/03 08:02:19;;;;;;;5.53;3.27;;;;;;;19.12;27.74;99505.58;1715272;82;21223;-74
2021/04/03 08:04:56;;;;;;;6.28;3.80;;;;;;;19.50;26.52;99499.69;1875759;76;22586;-75
2021/04/03 08:07:26;;;;;;;10.50;3.10;;;;;;;19.55;27.10;99496.63;1832825;77;21166;-75
2021/04/03 08:09:53;;;;;;;6.08;3.45;;;;;;;19.54;27.21;99498.12;1827713;77;21652;-75
2021/04/03 08:12:25;;;;;;;5.78;3.75;;;;;;;19.79;26.77;99509.78;1721186;77;21254;-68
2021/04/03 08:14:56;;;;;;;5.33;2.95;;;;;;;20.04;26.85;99510.36;1726825;81;21188;-70
2021/04/03 08:17:24;;;;;;;9.95;3.58;;;;;;;20.11;24.97;99515.53;1700054;84;21198;-70
2021/04/03 08:19:59;;;;;;;17.17;4.10;;;;;;;19.87;26.36;99515.80;1700025;83;21234;-70
2021/04/03 08:22:26;;;;;;;9.15;3.25;;;;;;;19.69;27.72;99515.53;1700058;84;21511;-70
2021/04/03 08:25:00;;;;;;;8.60;3.30;;;;;;;19.53;26.88;99524.45;1695589;83;21611;-71
2021/04/03 08:27:37;;;;;;;6.03;3.02;;;;;;;19.61;26.92;99516.66;1774010;78;21166;-69
2021/04/03 08:30:21;;;;;;;6.08;3.10;;;;;;;19.35;26.96;99529.03;1742573;81;21146;-70
2021/04/03 08:32:36;;;;;;;4.92;2.75;;;;;;;19.40;27.45;99518.81;1709065;81;23119;-72
2021/04/03 08:35:06;;;;;;;7.05;2.95;;;;;;;19.44;25.35;99511.38;1734621;82;21362;-71
2021/04/03 08:37:34;;;;;;;5.75;2.60;;;;;;;19.08;26.25;99512.97;1730929;80;21198;-70
2021/04/03 08:40:03;;;;;;;7.53;2.47;;;;;;;19.02;26.65;99514.80;1746207;82;21150;-70
2021/04/03 08:42:33;;;;;;;9.90;3.20;;;;;;;18.92;26.16;99516.55;1690735;81;21163;-71
2021/04/03 08:45:03;;;;;;;;;;;;;;;18.64;24.55;99513.41;1689253;82;21198;-71
2021/04/03 08:47:31;;;;;;;4.17;2.25;;;;;;;18.46;27.68;99526.88;1678198;84;21197;-70
2021/04/03 08:49:59;;;;;;;14.78;3.20;;;;;;;18.49;26.60;99520.45;1670866;84;21214;-72
2021/04/03 08:52:27;;;;;;;5.53;1.90;;;;;;;18.55;27.16;99519.97;1660161;84;21177;-71
2021/04/03 08:54:56;;;;;;;24.40;2.77;;;;;;;18.51;25.68;99519.36;1645481;84;21704;-72
2021/04/03 08:57:29;;;;;;;9.78;2.42;;;;;;;18.54;26.55;99509.80;1644294;82;21224;-70
2021/04/03 09:00:02;;;;;;;6.15;1.92;;;;;;;18.67;28.91;99513.64;1618653;87;22265;-69
2021/04/03 09:02:32;;;;;;;4.50;1.80;;;;;;;18.94;25.21;99505.27;1680298;84;21214;-71
2021/04/03 09:05:05;;;;;;;3.70;1.80;;;;;;;19.13;23.61;99497.08;1650141;85;21320;-70
2021/04/03 09:07:35;;;;;;;4.22;1.75;;;;;;;19.25;22.66;99497.38;1651806;85;21731;-69
2021/04/03 09:10:14;;;;;;;2.90;1.67;;;;;;;19.20;20.23;99500.93;1664899;86;21270;-69
2021/04/03 09:12:42;;;;;;;3.52;2.10;;;;;;;19.03;21.99;99497.00;1708466;80;21295;-71
2021/04/03 09:15:12;;;;;;;2.17;1.50;;;;;;;18.86;22.21;99509.03;1677383;84;21208;-73
2021/04/03 09:17:51;;;;;;;2.92;1.70;;;;;;;18.65;21.06;99504.42;1676015;84;21239;-71
2021/04/03 09:20:28;;;;;;;4.00;1.90;;;;;;;18.38;23.21;99499.97;1732749;81;21245;-71
2021/04/03 09:23:05;;;;;;;5.25;1.60;;;;;;;18.44;23.45;99508.33;1692340;83;21217;-71
2021/04/03 09:25:35;;;;;;;10.98;2.92;;;;;;;18.23;23.66;99505.55;1729862;79;22302;31
2021/04/03 09:28:06;;;;;;;3.35;1.72;;;;;;;18.15;23.20;99504.45;1687528;84;21248;-70
2021/04/03 09:30:43;;;;;;;3.08;1.85;;;;;;;18.15;22.55;99503.12;1677397;84;21231;-70
2021/04/03 09:33:21;;;;;;;3.12;1.67;;;;;;;17.92;23.03;99507.57;1691428;83;22514;-74
2021/04/03 09:35:51;;;;;;;2.98;1.57;;;;;;;17.84;23.21;99506.00;1666542;84;21203;-70
2021/04/03 09:38:30;;;;;;;3.02;1.57;;;;;;;17.78;21.74;99502.82;1671892;84;22238;-70
2021/04/03 09:40:58;;;;;;;4.10;1.42;;;;;;;17.54;22.12;99518.00;1686673;82;21309;-73
2021/04/03 09:43:40;;;;;;;12.60;1.95;;;;;;;17.03;23.38;99515.61;1691399;84;21199;-76
2021/04/03 09:46:09;;;;;;;4.50;1.95;;;;;;;16.57;24.69;99523.26;1700448;84;21218;-75
2021/04/03 09:48:38;;;;;;;4.62;2.08;;;;;;;16.31;26.05;99513.62;1696296;84;21197;-74
2021/04/03 09:51:07;;;;;;;5.83;2.15;;;;;;;16.21;26.84;99520.55;1715022;82;22681;-74
2021/04/03 09:53:37;;;;;;;7.95;2.30;;;;;;;16.21;26.84;99519.22;1721649;81;21178;-77
2021/04/03 09:56:06;;;;;;;4.92;2.12;;;;;;;16.19;27.60;99514.49;1731891;78;21315;-68
2021/04/03 09:58:34;;;;;;;13.13;2.70;;;;;;;16.21;26.35;99516.08;1767267;81;21431;-67
2021/04/03 10:01:04;;;;;;;7.47;2.33;;;;;;;16.39;24.27;99520.58;1764274;81;21170;-68
2021/04/03 10:03:33;;;;;;;3.33;1.90;;;;;;;16.50;24.07;99518.50;1761374;81;21210;-68
2021/04/03 10:06:01;;;;;;;2.75;1.72;;;;;;;16.65;23.53;99529.34;1760716;81;21146;-67
2021/04/03 10:08:30;;;;;;;3.17;1.92;;;;;;;16.77;22.05;99523.62;1762311;81;21229;-68
2021/04/03 10:10:58;;;;;;;3.17;2.00;;;;;;;16.90;24.00;99519.15;1755367;79;21104;-74
2021/04/03 10:13:26;;;;;;;4.00;1.77;;;;;;;17.04;22.24;99523.94;1741620;82;21182;-73
2021/04/03 10:15:54;;;;;;;3.58;2.00;;;;;;;17.14;21.26;99521.83;1730985;82;21439;-75
2021/04/03 10:18:24;;;;;;;4.50;1.87;;;;;;;17.47;23.71;99520.27;1733539;82;21166;-74
2021/04/03 10:20:52;;;;;;;5.15;1.35;;;;;;;18.00;21.55;99511.84;1726231;82;21190;-75
2021/04/03 10:23:20;;;;;;;4.08;1.55;;;;;;;18.40;21.80;99515.36;1723270;82;21213;-74
2021/04/03 10:25:49;;;;;;;2.83;1.87;;;;;;;18.64;21.56;99520.08;1719117;81;21196;-67
2021/04/03 10:28:18;;;;;;;3.87;1.90;;;;;;;18.65;20.76;99528.42;1708925;82;22813;-66
2021/04/03 10:30:47;;;;;;;7.25;1.98;;;;;;;18.53;22.70;99530.75;1654730;85;21206;-67
2021/04/03 10:33:16;;;;;;;5.22;1.82;;;;;;;18.47;22.24;99535.72;1653345;85;21640;-66
2021/04/03 10:35:44;;;;;;;5.92;1.82;;;;;;;18.32;21.58;99524.47;1666860;86;21267;-66
2021/04/03 10:38:13;;;;;;;5.78;1.90;;;;;;;18.23;23.48;99530.87;1690435;84;21162;-67
2021/04/03 10:40:41;;;;;;;18.95;2.65;;;;;;;18.23;20.92;99529.53;1659008;82;21355;-76
2021/04/03 10:43:10;;;;;;;4.12;1.65;;;;;;;18.14;21.67;99522.26;1644920;87;21189;-76
2021/04/03 10:45:39;;;;;;;5.22;1.92;;;;;;;17.98;21.62;99516.44;1677154;85;21207;-76
2021/04/03 10:48:07;;;;;;;4.50;2.12;;;;;;;17.92;21.50;99513.77;1629866;87;21194;-75
2021/04/03 10:50:35;;;;;;;7.47;2.15;;;;;;;17.68;22.05;99513.80;1668204;85;21244;-77
2021/04/03 10:53:03;;;;;;;4.50;2.00;;;;;;;17.44;22.48;99511.66;1653987;85;22123;-76
2021/04/03 10:55:31;;;;;;;5.30;1.67;;;;;;;17.42;22.90;99512.28;1686452;80;21221;-67
2021/04/03 10:58:00;;;;;;;7.90;2.35;;;;;;;17.35;23.10;99514.55;1709067;82;21201;-67
2021/04/03 11:00:29;;;;;;;3.00;1.87;;;;;;;17.19;22.27;99513.51;1756370;80;21209;-66
2021/04/03 11:02:58;;;;;;;6.45;1.65;;;;;;;17.25;22.57;99514.36;1741619;81;21209;-68
2021/04/03 11:05:26;;;;;;;5.05;1.90;;;;;;;17.26;24.30;99520.07;1756669;81;21374;-67
2021/04/03 11:07:55;;;;;;;10.98;2.12;;;;;;;17.19;23.45;99510.84;1735076;81;21720;-68
2021/04/03 11:10:23;;;;;;;2.52;1.37;;;;;;;17.11;24.73;99513.21;1684552;82;21711;-74
2021/04/03 11:12:51;;;;;;;3.50;1.65;;;;;;;17.11;22.75;99513.21;1710756;83;21080;-75
2021/04/03 11:15:21;;;;;;;7.47;2.20;;;;;;;16.91;22.65;99506.23;1703755;83;21133;-74
2021/04/03 11:17:54;;;;;;;3.20;1.45;;;;;;;16.87;21.58;99502.09;1705404;83;21156;-75
2021/04/03 11:20:23;;;;;;;10.48;1.47;;;;;;;16.85;21.49;99506.67;1676761;83;21171;-72
2021/04/03 11:22:53;;;;;;;2.10;1.10;;;;;;;16.83;20.83;99509.92;1713857;82;21646;-74
2021/04/03 11:25:21;;;;;;;3.00;1.17;;;;;;;16.83;20.13;99513.91;1697219;81;21189;-67
2021/04/03 11:27:50;;;;;;;3.05;1.12;;;;;;;16.84;21.20;99508.98;1713256;82;21193;-67
2021/04/03 11:30:20;;;;;;;2.05;0.98;;;;;;;17.03;20.34;99507.63;1703981;82;21363;-66
2021/04/03 11:32:52;;;;;;;3.87;1.17;;;;;;;17.07;20.11;99505.09;1680097;84;21252;-68
2021/04/03 11:35:22;;;;;;;3.05;1.10;;;;;;;17.18;19.06;99510.01;1688547;83;22366;-67
2021/04/03 11:37:50;;;;;;;2.15;0.90;;;;;;;17.16;19.38;99511.05;1681564;84;21215;-68
2021/04/03 11:40:18;;;;;;;1.32;0.90;;;;;;;17.18;18.77;99503.81;1701380;80;21218;-74
2021/04/03 11:42:52;;;;;;;2.30;1.32;;;;;;;17.17;18.14;99511.44;1700637;82;22625;-74
2021/04/03 11:45:23;;;;;;;1.55;1.10;;;;;;;17.15;17.85;99500.90;1683720;84;21194;-76
2021/04/03 11:47:52;;;;;;;2.58;1.47;;;;;;;17.04;18.73;99506.66;1649642;85;21834;-75
2021/04/03 11:50:21;;;;;;;7.80;2.08;;;;;;;16.88;19.32;99501.12;1671056;84;21189;-75
2021/04/03 11:52:49;;;;;;;2.83;1.10;;;;;;;16.38;19.82;99502.95;1670536;84;21150;-75
2021/04/03 11:55:18;;;;;;;2.70;1.10;;;;;;;16.20;18.42;99503.77;1687345;80;21892;-67